Time;durP1;ratioP1;P1;durP2;ratioP2;P2;SDS_P1;SDS_P2;PMS_P1;PMS_P2;Temp;Humidity;BMP_temperature;BMP_pressure;BME280_temperature;BME280_humidity;BME280_pressure;Samples;Min_cycle;Max_cycle;Signal;HPM_P1;HPM_P2
2024/01/27 00:01:33;;;;;;;7.10;2.60;;;5.30;99.90;;;5.00;80.98;102439.63;4825016;28;24441;-68
2024/01/27 00:03:55;;;;;;;4.90;2.30;;;5.20;99.90;;;4.97;81.23;102443.97;4833825;28;24966;-68
2024/01/27 00:06:17;;;;;;;3.70;2.30;;;5.10;99.90;;;4.94;81.72;102447.47;4834564;28;24487;-68
2024/01/27 00:08:39;;;;;;;3.13;2.10;;;5.10;99.90;;;4.85;81.50;102439.91;4825468;28;20795;-68
2024/01/27 00:11:01;;;;;;;6.80;2.60;;;5.10;99.90;;;4.85;82.06;102445.09;4827809;28;24437;-68
2024/01/27 00:13:23;;;;;;;4.47;2.60;;;5.00;99.90;;;4.84;82.21;102445.09;4830570;28;20824;-68
2024/01/27 00:15:45;;;;;;;4.15;2.40;;;5.00;99.90;;;4.82;82.00;102441.69;4829277;28;24451;-67
2024/01/27 00:18:06;;;;;;;3.10;2.50;;;5.00;99.90;;;4.79;82.49;102441.78;4826455;28;24564;-68
2024/01/27 00:20:28;;;;;;;3.90;2.50;;;4.90;99.90;;;4.80;82.60;102444.31;4824847;28;24429;-69
2024/01/27 00:22:50;;;;;;;3.20;2.20;;;4.90;99.90;;;4.75;82.19;102440.97;4834089;28;20865;-69
2024/01/27 00:25:12;;;;;;;5.57;2.40;;;4.90;99.90;;;4.68;82.72;102450.56;4833682;28;24516;-69
2024/01/27 00:27:34;;;;;;;3.47;2.60;;;4.90;99.90;;;4.68;83.10;102440.22;4828624;28;24480;-70
2024/01/27 00:29:56;;;;;;;3.17;2.53;;;4.80;99.90;;;4.66;82.69;102442.00;4834793;28;24460;-69
2024/01/27 00:32:18;;;;;;;3.83;2.60;;;4.80;99.90;;;4.67;82.65;102443.72;4833066;28;24550;-70
2024/01/27 00:34:40;;;;;;;6.45;3.10;;;4.80;99.90;;;4.64;82.76;102446.34;4833871;28;24487;-74
2024/01/27 00:37:02;;;;;;;3.30;2.60;;;4.80;99.90;;;4.59;82.66;102455.94;4834232;28;24474;-72
2024/01/27 00:39:24;;;;;;;3.35;2.60;;;4.80;99.90;;;4.55;82.96;102454.28;4833819;28;24444;-71
2024/01/27 00:41:46;;;;;;;3.10;2.10;;;4.70;99.90;;;4.48;83.17;102457.00;4834550;28;24436;-68
2024/01/27 00:44:08;;;;;;;4.18;2.30;;;4.70;99.90;;;4.55;82.56;102463.78;4827715;28;21148;-68
2024/01/27 00:46:30;;;;;;;3.20;1.70;;;4.70;99.90;;;4.54;82.40;102456.88;4817712;28;25047;-70
2024/01/27 00:48:52;;;;;;;2.05;1.83;;;4.70;99.90;;;4.50;82.67;102456.09;4834225;28;20862;-68
2024/01/27 00:51:14;;;;;;;2.20;2.00;;;4.70;99.90;;;4.55;82.52;102463.78;4834745;28;24464;-69
2024/01/27 00:53:36;;;;;;;4.53;2.00;;;4.70;99.90;;;4.48;82.63;102460.44;4826721;28;20791;-68
2024/01/27 00:55:58;;;;;;;6.22;2.20;;;4.70;99.90;;;4.42;82.84;102451.94;4833223;28;24935;-68
2024/01/27 00:58:20;;;;;;;3.80;2.30;;;4.60;99.90;;;4.45;83.11;102457.06;4833678;28;24535;-67
2024/01/27 01:00:42;;;;;;;5.05;2.00;;;4.60;99.90;;;4.43;82.82;102459.66;4832691;28;24459;-66
2024/01/27 01:03:04;;;;;;;3.63;1.95;;;4.60;99.90;;;4.46;83.04;102469.97;4830494;28;20778;-68
2024/01/27 01:05:26;;;;;;;2.25;1.77;;;4.60;99.90;;;4.45;83.00;102465.66;4831382;28;24552;-68
2024/01/27 01:07:48;;;;;;;2.60;2.33;;;4.60;99.90;;;4.46;82.86;102461.34;4837164;28;24567;-69
2024/01/27 01:10:10;;;;;;;4.55;2.20;;;4.60;99.90;;;4.42;82.69;102470.91;4831156;28;24476;-68
2024/01/27 01:12:32;;;;;;;2.53;2.03;;;4.60;99.90;;;4.40;82.71;102470.06;4833022;28;25019;-68
2024/01/27 01:14:54;;;;;;;3.67;1.70;;;4.60;99.90;;;4.41;83.03;102469.16;4829136;28;24450;-68
2024/01/27 01:17:16;;;;;;;3.28;1.95;;;4.60;99.90;;;4.40;82.73;102472.66;4830340;28;20782;-68
2024/01/27 01:19:38;;;;;;;3.60;2.40;;;4.60;99.90;;;4.39;82.87;102470.94;4837155;28;24423;-67
2024/01/27 01:22:00;;;;;;;5.50;1.80;;;4.50;99.90;;;4.36;83.30;102472.72;4833561;28;24491;-69
2024/01/27 01:24:22;;;;;;;3.92;2.10;;;4.50;99.90;;;4.37;83.03;102479.59;4837815;28;24517;-68
2024/01/27 01:26:44;;;;;;;4.43;2.00;;;4.50;99.90;;;4.39;83.24;102489.03;4834512;28;24535;-68
2024/01/27 01:29:06;;;;;;;2.92;2.20;;;4.60;99.90;;;4.38;82.89;102491.66;4820742;28;20824;-68
2024/01/27 01:31:27;;;;;;;5.53;2.30;;;4.60;99.90;;;4.31;83.07;102503.81;4829383;28;24581;-67
2024/01/27 01:33:49;;;;;;;2.65;1.90;;;4.50;99.90;;;4.23;83.52;102510.84;4838056;28;24460;-68
2024/01/27 01:36:11;;;;;;;4.80;1.90;;;4.40;99.90;;;4.24;83.77;102506.53;4834608;28;25417;-68
2024/01/27 01:38:33;;;;;;;3.90;1.90;;;4.40;99.90;;;4.23;83.12;102510.00;4830588;28;24452;-68
2024/01/27 01:40:55;;;;;;;4.15;2.00;;;4.50;99.90;;;4.08;84.05;102515.38;4827700;28;24543;-69
2024/01/27 01:43:17;;;;;;;6.05;2.20;;;4.30;99.90;;;4.07;84.42;102514.53;4834657;28;25010;-69
2024/01/27 01:45:39;;;;;;;4.90;2.10;;;4.30;99.90;;;4.18;84.03;102512.63;4823824;28;24447;-69
2024/01/27 01:48:01;;;;;;;2.25;1.90;;;4.30;99.90;;;4.21;83.75;102504.84;4807103;28;20791;-71
2024/01/27 01:50:24;;;;;;;3.88;2.20;;;4.40;99.90;;;4.26;83.53;102505.59;4836017;28;24436;-68
2024/01/27 01:52:48;;;;;;;3.25;1.80;;;4.40;99.90;;;4.27;83.06;102504.75;4831366;28;20822;-68
2024/01/27 01:55:10;;;;;;;3.70;2.20;;;4.40;99.90;;;4.31;83.45;102500.38;4816779;28;24444;-67
2024/01/27 01:57:33;;;;;;;6.97;3.13;;;4.40;99.90;;;4.30;83.33;102499.50;4836300;28;21360;-68
2024/01/27 01:59:55;;;;;;;5.18;2.70;;;4.40;99.90;;;4.30;83.72;102496.09;4833349;28;24479;-70
2024/01/27 02:02:17;;;;;;;4.47;2.40;;;4.40;99.90;;;4.31;83.03;102502.97;4829105;28;24476;-70
2024/01/27 02:04:45;;;;;;;3.75;2.00;;;4.50;99.90;;;4.33;83.13;102499.47;4832472;28;24963;-71
2024/01/27 02:07:08;;;;;;;6.05;2.60;;;4.50;99.90;;;4.33;83.25;102499.47;4836131;28;20774;-70
2024/01/27 02:09:30;;;;;;;4.33;2.40;;;4.50;99.90;;;4.31;83.36;102501.22;4827940;28;24447;-68
2024/01/27 02:11:52;;;;;;;3.15;2.45;;;4.50;99.90;;;4.30;83.51;102517.59;4837241;28;24973;-68
2024/01/27 02:14:14;;;;;;;4.47;2.70;;;4.50;99.90;;;4.26;83.07;102513.38;4832117;28;20786;-68
2024/01/27 02:16:36;;;;;;;7.90;2.80;;;4.40;99.90;;;4.25;82.99;102521.16;4831218;28;24539;-70
2024/01/27 02:18:58;;;;;;;5.18;2.67;;;4.40;99.90;;;4.23;83.28;102525.50;4831181;28;24539;-68
2024/01/27 02:21:20;;;;;;;6.13;2.50;;;4.40;99.90;;;4.18;83.92;102527.28;4836480;28;24444;-68
2024/01/27 02:23:42;;;;;;;4.40;2.50;;;4.40;99.90;;;4.16;83.94;102522.16;4835072;28;24463;-68
2024/01/27 02:26:04;;;;;;;5.03;2.70;;;4.30;99.90;;;4.14;83.93;102520.47;4834571;28;25011;-69
2024/01/27 02:28:26;;;;;;;5.82;2.50;;;4.30;99.90;;;4.13;84.19;102524.75;4837242;28;24436;-71
2024/01/27 02:30:48;;;;;;;2.10;1.90;;;4.30;99.90;;;4.15;83.91;102530.78;4822621;28;24453;-71
2024/01/27 02:33:10;;;;;;;3.80;2.10;;;4.30;99.90;;;4.11;83.90;102526.53;4827313;28;24550;-71
2024/01/27 02:35:32;;;;;;;2.13;1.80;;;4.30;99.90;;;4.10;83.87;102524.84;4835254;28;24436;-69
2024/01/27 02:37:54;;;;;;;3.80;2.13;;;4.30;99.90;;;4.07;84.34;102527.44;4831607;28;25029;-71
2024/01/27 02:40:16;;;;;;;2.65;2.00;;;4.20;99.90;;;4.02;84.34;102526.69;4834016;28;20790;-67
2024/01/27 02:42:38;;;;;;;2.30;1.77;;;4.20;99.90;;;4.01;84.30;102527.53;4836343;28;24467;-72
2024/01/27 02:45:00;;;;;;;3.70;1.90;;;4.20;99.90;;;3.99;83.95;102525.84;4833643;28;20825;-72
2024/01/27 02:47:22;;;;;;;2.90;1.70;;;4.20;99.90;;;3.97;84.18;102527.59;4828261;28;24448;-71
2024/01/27 02:49:44;;;;;;;1.92;1.73;;;4.10;99.90;;;3.95;84.56;102532.81;4836160;28;24436;-71
2024/01/27 02:52:06;;;;;;;1.70;1.60;;;4.10;99.90;;;3.92;84.53;102532.84;4829096;28;24460;-70
2024/01/27 02:54:28;;;;;;;5.10;1.80;;;4.10;99.90;;;3.91;84.50;102531.16;4823194;28;24473;-68
2024/01/27 02:56:50;;;;;;;4.30;1.60;;;4.10;99.90;;;3.87;84.52;102532.94;4830779;28;25008;-68
2024/01/27 02:59:12;;;;;;;2.83;1.60;;;4.10;99.90;;;3.85;84.68;102539.00;4833253;28;24463;-69
2024/01/27 03:01:34;;;;;;;2.30;1.60;;;4.00;99.90;;;3.85;84.70;102544.16;4821255;28;24563;-69
2024/01/27 03:03:56;;;;;;;2.97;1.70;;;4.00;99.90;;;3.83;84.91;102538.97;4830430;28;25446;-70
2024/01/27 03:06:18;;;;;;;3.38;1.70;;;4.00;99.90;;;3.87;85.08;102542.41;4830613;28;24516;-67
2024/01/27 03:08:40;;;;;;;5.47;1.90;;;4.00;99.90;;;3.88;85.35;102547.53;4827079;28;24460;-68
2024/01/27 03:11:03;;;;;;;2.30;1.65;;;4.00;99.90;;;3.88;85.20;102544.94;4826742;28;24444;-69
2024/01/27 03:13:25;;;;;;;3.40;2.00;;;4.00;99.90;;;3.89;84.88;102548.41;4834569;28;20833;-67
2024/01/27 03:15:46;;;;;;;2.30;1.80;;;4.10;99.90;;;3.88;84.91;102549.25;4834717;28;25033;-71
2024/01/27 03:18:08;;;;;;;1.92;1.70;;;4.00;99.90;;;3.90;85.12;102550.94;4829186;28;20889;-67
2024/01/27 03:20:31;;;;;;;2.27;1.80;;;4.00;99.90;;;3.91;84.86;102551.81;4834031;28;24424;-70
2024/01/27 03:22:53;;;;;;;3.72;1.73;;;4.00;99.90;;;3.91;84.86;102551.81;4833544;28;24433;-71
2024/01/27 03:25:14;;;;;;;3.22;1.52;;;4.00;99.90;;;3.90;84.82;102542.34;4833438;28;24441;-67
2024/01/27 03:27:36;;;;;;;3.03;1.60;;;4.10;99.90;;;3.88;84.71;102544.09;4836260;28;24520;-67
2024/01/27 03:30:03;;;;;;;3.50;1.67;;;4.00;99.90;;;3.86;84.56;102548.44;4836439;28;24548;-68
2024/01/27 03:32:25;;;;;;;1.90;1.80;;;4.00;99.90;;;3.86;84.83;102551.00;4831741;28;24472;-68
2024/01/27 03:34:47;;;;;;;4.55;2.00;;;4.00;99.90;;;3.86;84.46;102549.28;4825393;28;24433;-69
2024/01/27 03:37:10;;;;;;;4.07;2.00;;;4.00;99.90;;;3.85;84.61;102549.31;4834381;28;24480;-67
2024/01/27 03:39:32;;;;;;;3.40;1.60;;;4.00;99.90;;;3.84;84.44;102551.03;4831604;28;24492;-67
2024/01/27 03:41:54;;;;;;;2.90;2.00;;;4.00;99.90;;;3.58;83.58;102547.06;4834931;28;24439;-68
2024/01/27 03:44:16;;;;;;;2.33;2.13;;;3.90;99.90;;;3.47;84.34;102548.97;4831591;28;20797;-68
2024/01/27 03:46:39;;;;;;;3.83;2.00;;;3.70;99.90;;;3.41;85.39;102544.72;4822355;28;24988;-67
2024/01/27 03:49:01;;;;;;;5.65;2.33;;;3.60;99.90;;;3.42;85.66;102553.31;4828058;28;24428;-69
2024/01/27 03:51:24;;;;;;;3.07;2.27;;;3.60;99.90;;;3.42;86.39;102550.72;4834235;28;24539;-68
2024/01/27 03:53:46;;;;;;;4.53;2.35;;;3.60;99.90;;;3.39;86.28;102554.19;4828326;28;24453;-67
2024/01/27 03:56:12;;;;;;;3.30;2.10;;;3.60;99.90;;;3.40;85.64;102553.34;4835910;28;24483;-68
2024/01/27 03:58:34;;;;;;;3.85;2.20;;;3.60;99.90;;;3.43;86.23;102557.63;4810913;28;25026;-66
2024/01/27 04:00:59;;;;;;;4.80;2.20;;;3.60;99.90;;;3.38;85.26;102555.09;4832529;28;24528;-65
2024/01/27 04:03:21;;;;;;;4.15;2.38;;;3.60;99.90;;;3.33;86.16;102561.16;4830402;28;25063;-66
2024/01/27 04:05:43;;;;;;;4.25;2.30;;;3.50;99.90;;;3.28;85.81;102557.81;4814706;28;24510;-66
2024/01/27 04:08:06;;;;;;;2.40;2.10;;;3.50;99.90;;;3.25;86.25;102557.81;4834695;28;24807;-68
2024/01/27 04:10:28;;;;;;;3.42;2.58;;;3.40;99.90;;;3.24;86.61;102562.13;4829776;28;24810;-66
2024/01/27 04:12:50;;;;;;;6.20;2.40;;;3.40;99.90;;;3.23;86.80;102569.88;4835227;28;24464;-66
2024/01/27 04:15:12;;;;;;;4.33;2.20;;;3.40;99.90;;;3.25;86.92;102565.56;4831985;28;24444;-66
2024/01/27 04:17:34;;;;;;;3.50;1.90;;;3.40;99.90;;;3.17;86.34;102570.81;4833538;28;24470;-68
2024/01/27 04:19:56;;;;;;;3.08;2.45;;;3.40;99.90;;;3.14;86.94;102582.03;4834574;28;20945;-66
2024/01/27 04:22:18;;;;;;;2.33;2.13;;;3.30;99.90;;;3.12;86.87;102583.75;4834618;28;24486;-66
2024/01/27 04:24:40;;;;;;;2.70;2.50;;;3.30;99.90;;;3.11;87.10;102587.19;4835266;28;24524;-64
2024/01/27 04:27:02;;;;;;;2.47;2.17;;;3.30;99.90;;;3.04;87.56;102588.16;4826804;28;24476;-67
2024/01/27 04:29:24;;;;;;;2.95;2.20;;;3.20;99.90;;;3.04;88.26;102595.88;4835974;28;24444;-67
2024/01/27 04:31:46;;;;;;;6.03;2.42;;;3.20;99.90;;;3.04;87.83;102590.72;4808425;28;24466;-67
2024/01/27 04:34:08;;;;;;;4.57;2.50;;;3.20;99.90;;;2.98;88.04;102585.59;4816897;28;24539;-66
2024/01/27 04:36:30;;;;;;;3.53;2.40;;;3.20;99.90;;;2.95;88.03;102597.69;4833992;28;25006;-66
2024/01/27 04:38:53;;;;;;;3.00;2.30;;;3.20;99.90;;;2.93;87.75;102591.69;4831648;28;24539;-66
2024/01/27 04:41:14;;;;;;;2.60;2.40;;;3.10;99.90;;;2.92;88.08;102595.97;4827617;28;24476;-65
2024/01/27 04:43:36;;;;;;;4.75;2.30;;;3.10;99.90;;;2.90;88.05;102595.16;4837365;28;25217;-67
2024/01/27 04:45:59;;;;;;;4.50;2.20;;;3.10;99.90;;;2.91;88.72;102594.28;4837760;28;24429;-66
2024/01/27 04:48:21;;;;;;;2.50;2.30;;;3.10;99.90;;;2.91;88.74;102596.88;4830001;28;24444;-68
2024/01/27 04:50:43;;;;;;;5.53;2.50;;;3.10;99.90;;;2.93;88.72;102602.00;4837719;28;24434;-66
2024/01/27 04:53:05;;;;;;;2.37;2.27;;;3.10;99.90;;;2.89;88.79;102606.34;4819722;28;25114;-65
2024/01/27 04:55:27;;;;;;;3.63;2.40;;;3.10;99.90;;;2.85;89.20;102596.06;4810377;28;24535;-67
2024/01/27 04:57:49;;;;;;;2.80;2.60;;;3.00;99.90;;;2.86;88.87;102600.34;4835871;28;25058;-66
2024/01/27 05:00:12;;;;;;;5.00;2.72;;;3.00;99.90;;;2.83;88.53;102600.38;4837071;28;24539;-65
2024/01/27 05:02:34;;;;;;;3.63;2.70;;;3.00;99.90;;;2.81;89.13;102604.69;4833651;28;25061;-68
2024/01/27 05:04:56;;;;;;;3.20;2.90;;;3.00;99.90;;;2.70;89.05;102601.34;4829753;28;24863;-67
2024/01/27 05:07:18;;;;;;;4.90;3.00;;;2.90;99.90;;;2.66;89.53;102600.50;4837653;28;24447;-69
2024/01/27 05:09:40;;;;;;;4.82;3.58;;;2.90;99.90;;;2.60;90.70;102597.97;4829139;28;24480;-69
2024/01/27 05:12:02;;;;;;;3.40;3.10;;;2.90;99.90;;;2.66;90.27;102600.50;4837198;28;24556;-66
2024/01/27 05:14:24;;;;;;;4.47;3.42;;;2.90;99.90;;;2.68;90.44;102601.38;4836447;28;24464;-69
2024/01/27 05:16:46;;;;;;;4.15;3.30;;;2.90;99.90;;;2.67;90.31;102601.38;4831948;28;24476;-69
2024/01/27 05:19:08;;;;;;;4.15;3.30;;;2.90;99.90;;;2.60;90.28;102597.16;4831764;28;25295;-66
2024/01/27 05:21:30;;;;;;;3.90;2.63;;;2.80;99.90;;;2.58;90.95;102602.28;4837044;28;25209;-70
2024/01/27 05:23:53;;;;;;;5.83;3.00;;;2.80;99.90;;;2.61;91.05;102599.72;4832337;28;24451;-68
2024/01/27 05:26:15;;;;;;;3.60;2.88;;;2.80;99.90;;;2.59;90.78;102600.56;4838502;28;24452;-66
2024/01/27 05:28:40;;;;;;;5.80;3.15;;;2.80;99.90;;;2.47;91.38;102603.25;4834096;28;24507;-67
2024/01/27 05:31:02;;;;;;;3.28;2.97;;;2.70;99.90;;;2.41;91.53;102609.28;4837559;28;24803;-66
2024/01/27 05:33:24;;;;;;;3.30;3.00;;;2.70;99.90;;;2.42;91.13;102605.00;4827958;28;24452;-66
2024/01/27 05:35:46;;;;;;;3.10;2.80;;;2.70;99.90;;;2.43;91.75;102606.72;4838114;28;25040;-66
2024/01/27 05:38:08;;;;;;;6.45;3.30;;;2.70;99.90;;;2.43;91.96;102614.47;4819525;28;24682;-68
2024/01/27 05:40:30;;;;;;;3.90;3.20;;;2.70;99.90;;;2.42;91.19;102613.59;4828990;28;25076;-67
2024/01/27 05:42:52;;;;;;;4.80;3.00;;;2.70;99.90;;;2.42;91.64;102613.59;4838281;28;25128;-66
2024/01/27 05:45:14;;;;;;;3.35;2.83;;;2.60;99.90;;;2.45;91.25;102617.88;4833948;28;25017;-66
2024/01/27 05:47:36;;;;;;;3.38;2.60;;;2.60;99.90;;;2.42;91.39;102623.91;4835957;28;24440;-64
2024/01/27 05:49:59;;;;;;;5.10;2.80;;;2.60;99.90;;;2.39;91.07;102623.91;4818045;28;24523;-67
2024/01/27 05:52:21;;;;;;;6.00;3.15;;;2.60;99.90;;;2.37;90.21;102628.22;4832349;28;24882;-67
2024/01/27 05:54:46;;;;;;;2.85;2.50;;;2.60;99.90;;;2.31;90.98;102625.69;4827746;28;24425;-67
2024/01/27 05:57:08;;;;;;;6.15;3.10;;;2.60;99.90;;;2.30;91.30;102629.13;4836693;28;24431;-67
2024/01/27 05:59:30;;;;;;;6.00;3.00;;;2.50;99.90;;;2.31;91.41;102628.25;4830768;28;24989;-66
2024/01/27 06:01:52;;;;;;;6.28;3.33;;;2.50;99.90;;;2.35;92.45;102625.66;4829026;28;24435;-66
2024/01/27 06:04:14;;;;;;;4.80;3.10;;;2.50;99.90;;;2.42;91.88;102629.06;4828188;28;24470;-66
2024/01/27 06:06:39;;;;;;;4.00;2.83;;;2.60;99.90;;;2.46;92.38;102625.59;4835442;28;24495;-68
2024/01/27 06:09:03;;;;;;;3.72;3.10;;;2.60;99.90;;;2.49;92.01;102630.75;4825050;28;24448;-68
2024/01/27 06:11:26;;;;;;;3.25;2.58;;;2.70;99.90;;;2.52;92.21;102635.84;4831137;28;24811;-67
2024/01/27 06:13:48;;;;;;;3.80;2.63;;;2.70;99.90;;;2.60;91.21;102643.53;4835326;28;24997;-68
2024/01/27 06:16:10;;;;;;;3.22;2.80;;;2.80;99.90;;;2.58;91.44;102645.28;4828614;28;21239;-67
2024/01/27 06:18:32;;;;;;;4.68;2.70;;;2.80;99.90;;;2.62;91.12;102645.22;4835131;28;24570;-64
2024/01/27 06:20:54;;;;;;;3.45;2.70;;;2.80;99.90;;;2.65;90.49;102642.63;4835911;28;24435;-68
2024/01/27 06:23:16;;;;;;;5.75;3.10;;;2.90;99.90;;;2.59;91.02;102642.69;4834478;28;24448;-68
2024/01/27 06:25:38;;;;;;;4.13;3.40;;;2.80;99.90;;;2.58;90.93;102645.28;4837056;28;24432;-66
2024/01/27 06:28:00;;;;;;;5.03;3.60;;;2.80;99.90;;;2.50;90.71;102640.16;4833899;28;24432;-66
2024/01/27 06:30:23;;;;;;;5.80;3.53;;;2.80;99.90;;;2.48;91.10;102641.91;4831157;28;24467;-67
2024/01/27 06:32:46;;;;;;;6.43;3.78;;;2.70;99.90;;;2.49;91.04;102651.34;4831190;28;24535;-65
2024/01/27 06:35:08;;;;;;;4.88;3.10;;;2.70;99.90;;;2.47;91.16;102637.59;4817256;28;24846;-68
2024/01/27 06:37:30;;;;;;;5.32;3.60;;;2.70;99.90;;;2.39;91.61;102644.53;4835454;28;24795;-67
2024/01/27 06:39:52;;;;;;;5.90;3.60;;;2.60;99.90;;;2.38;91.85;102653.13;4826967;28;24526;-67
2024/01/27 06:42:14;;;;;;;4.32;3.92;;;2.60;99.90;;;2.35;91.73;102648.00;4836499;28;24436;-67
2024/01/27 06:44:36;;;;;;;4.60;3.72;;;2.60;99.90;;;2.35;91.86;102653.13;4822585;28;24455;-67
2024/01/27 06:46:58;;;;;;;6.47;3.75;;;2.60;99.90;;;2.32;91.04;102651.44;4826122;28;24484;-66
2024/01/27 06:49:20;;;;;;;5.05;3.78;;;2.50;99.90;;;2.28;91.73;102652.31;4828701;28;24451;-67
2024/01/27 06:51:44;;;;;;;5.80;3.83;;;2.50;99.90;;;2.31;91.71;102654.03;4835116;28;24888;-69
2024/01/27 06:54:05;;;;;;;5.50;3.80;;;2.50;99.90;;;2.36;92.27;102649.72;4833473;28;24445;-64
2024/01/27 06:56:27;;;;;;;5.03;3.80;;;2.50;99.90;;;2.36;92.38;102645.38;4826334;28;24534;-66
2024/01/27 06:58:49;;;;;;;5.07;4.00;;;2.60;99.90;;;2.41;92.62;102647.94;4835777;28;24574;-67
2024/01/27 07:01:11;;;;;;;7.53;4.18;;;2.60;99.90;;;2.40;92.19;102635.94;4822204;28;25001;-67
2024/01/27 07:03:33;;;;;;;6.40;3.80;;;2.60;99.90;;;2.42;92.21;102639.38;4824971;28;24843;-66
2024/01/27 07:05:56;;;;;;;7.10;3.95;;;2.60;99.90;;;2.39;92.40;102641.94;4833900;28;24432;-66
2024/01/27 07:08:18;;;;;;;6.60;3.80;;;2.60;99.90;;;2.40;92.41;102643.69;4835404;28;24436;-67
2024/01/27 07:10:40;;;;;;;7.22;3.88;;;2.60;99.90;;;2.43;92.75;102635.91;4832892;28;24535;-67
2024/01/27 07:13:02;;;;;;;6.00;3.80;;;2.60;99.90;;;2.48;92.90;102649.63;4834956;28;24487;-68
2024/01/27 07:15:24;;;;;;;5.13;3.70;;;2.70;99.90;;;2.52;92.75;102645.28;4830499;28;24550;-69
2024/01/27 07:17:46;;;;;;;4.85;3.63;;;2.70;99.90;;;2.62;92.51;102640.06;4832506;28;24432;-67
2024/01/27 07:20:09;;;;;;;7.13;4.03;;;2.70;99.90;;;2.70;92.06;102635.72;4831924;28;24543;-67
2024/01/27 07:22:31;;;;;;;6.43;3.70;;;2.80;99.90;;;2.76;91.70;102642.53;4835553;28;24566;-67
2024/01/27 07:24:53;;;;;;;5.57;3.67;;;2.90;99.90;;;2.77;90.72;102655.41;4826211;28;24564;-67
2024/01/27 07:27:15;;;;;;;4.70;4.00;;;2.90;99.90;;;2.64;89.93;102655.53;4835785;28;24454;-66
2024/01/27 07:29:37;;;;;;;5.68;4.30;;;2.90;99.90;;;2.56;89.54;102653.00;4829507;28;24445;-67
2024/01/27 07:31:59;;;;;;;4.30;3.50;;;2.80;99.90;;;2.56;90.95;102653.00;4834269;28;24491;-67
2024/01/27 07:34:21;;;;;;;4.20;3.80;;;2.70;99.90;;;2.58;90.59;102660.75;4831841;28;24530;-67
2024/01/27 07:36:44;;;;;;;5.53;4.60;;;2.70;99.90;;;2.71;90.68;102660.63;4834933;28;24524;-67
2024/01/27 07:39:06;;;;;;;13.68;7.85;;;2.80;99.90;;;2.83;90.48;102655.34;4829396;28;25008;-64
2024/01/27 07:41:28;;;;;;;13.75;8.73;;;2.90;99.90;;;3.02;90.88;102653.50;4832998;28;24791;-67
2024/01/27 07:43:55;;;;;;;11.18;8.10;;;3.00;99.90;;;3.43;91.38;102651.34;4815532;28;24432;-69
2024/01/27 07:46:19;;;;;;;12.18;7.70;;;3.40;99.90;;;3.87;88.78;102662.06;4829008;28;24451;-68
2024/01/27 07:48:41;;;;;;;8.95;7.00;;;3.70;99.90;;;4.44;86.50;102663.00;4835039;28;24494;-67
2024/01/27 07:51:04;;;;;;;9.65;6.10;;;4.20;99.90;;;4.77;83.43;102671.97;4830186;28;24568;-70
2024/01/27 07:53:26;;;;;;;8.43;5.77;;;4.50;99.90;;;5.12;82.53;102663.63;4830579;28;24544;-71
2024/01/27 07:55:48;;;;;;;6.75;5.43;;;4.80;99.90;;;5.77;81.19;102672.78;4824196;28;25072;-67
2024/01/27 07:58:10;;;;;;;6.40;5.00;;;5.20;99.90;;;6.39;76.86;102674.09;4834323;28;21395;-68
2024/01/27 08:00:32;;;;;;;9.05;5.20;;;5.80;99.90;;;6.76;75.03;102664.53;4824038;28;24492;-67
2024/01/27 08:02:54;;;;;;;10.85;5.85;;;6.20;99.90;;;7.31;72.89;102662.28;4824631;28;24483;-67
2024/01/27 08:05:16;;;;;;;6.38;4.57;;;6.70;99.90;;;8.19;69.55;102664.97;4828336;28;25028;-67
2024/01/27 08:07:42;;;;;;;5.32;4.18;;;7.40;99.90;;;8.88;66.64;102657.56;4830886;28;24529;-68
2024/01/27 08:10:05;;;;;;;6.28;4.40;;;8.00;99.90;;;9.37;64.65;102655.00;4834233;28;25026;-71
2024/01/27 08:12:27;;;;;;;6.22;4.03;;;8.50;99.90;;;9.60;63.10;102661.19;4833857;28;24439;-69
2024/01/27 08:14:49;;;;;;;5.28;4.30;;;8.90;99.90;;;10.00;61.39;102664.88;4831101;28;24858;-71
2024/01/27 08:17:11;;;;;;;7.15;4.50;;;9.20;99.90;;;10.69;60.95;102652.66;4837924;28;24452;-70
2024/01/27 08:19:33;;;;;;;11.60;4.70;;;9.70;99.90;;;11.57;58.27;102647.09;4835722;28;24527;-71
2024/01/27 08:21:55;;;;;;;6.72;4.70;;;10.40;99.90;;;12.92;54.40;102649.41;4826430;28;24495;-68
2024/01/27 08:24:17;;;;;;;5.85;4.47;;;11.40;99.90;;;14.22;51.22;102655.66;4826760;28;25052;-68
2024/01/27 08:26:39;;;;;;;7.45;5.10;;;12.50;99.90;;;15.51;47.94;102660.38;4837365;28;24873;-70
2024/01/27 08:29:01;;;;;;;6.70;4.70;;;13.70;99.90;;;16.86;44.28;102663.13;4838279;28;24515;-68
2024/01/27 08:31:23;;;;;;;8.68;4.90;;;14.90;99.90;;;18.04;41.67;102670.78;4837056;28;24490;-68
2024/01/27 08:33:45;;;;;;;8.18;5.10;;;16.00;98.00;;;18.86;39.78;102670.91;4838444;28;24487;-69
2024/01/27 08:36:07;;;;;;;8.65;5.03;;;17.00;95.00;;;19.72;38.13;102678.31;4837008;28;24443;-67
2024/01/27 08:38:29;;;;;;;5.35;4.85;;;17.80;92.30;;;20.50;35.99;102676.44;4831342;28;24452;-67
2024/01/27 08:40:51;;;;;;;6.10;4.43;;;18.60;88.80;;;21.48;34.65;102669.94;4829075;28;24459;-69
2024/01/27 08:43:13;;;;;;;7.97;4.63;;;19.40;84.60;;;22.59;32.35;102674.25;4833020;28;24494;-69
2024/01/27 08:45:37;;;;;;;6.30;4.38;;;20.40;79.40;;;23.39;30.76;102667.59;4823580;28;24547;-67
2024/01/27 08:47:59;;;;;;;5.50;4.35;;;21.20;73.80;;;24.07;29.45;102670.84;4827437;28;24487;-65
2024/01/27 08:50:21;;;;;;;5.50;4.30;;;21.90;69.50;;;24.74;28.48;102678.41;4831211;28;24495;-66
2024/01/27 08:52:43;;;;;;;7.13;4.30;;;22.60;65.80;;;25.25;27.47;102673.16;4837018;28;24424;-71
2024/01/27 08:55:06;;;;;;;8.02;4.60;;;23.10;63.00;;;26.06;26.72;102688.66;4824408;28;24454;-69
2024/01/27 08:57:28;;;;;;;7.30;4.10;;;23.80;60.50;;;26.71;25.68;102680.78;4836472;28;24471;-68
2024/01/27 08:59:49;;;;;;;7.40;4.32;;;24.40;58.10;;;27.08;25.41;102678.47;4837059;28;24452;-69
2024/01/27 09:02:12;;;;;;;4.70;4.07;;;24.90;56.20;;;27.67;24.25;102682.56;4835403;28;24809;-68
2024/01/27 09:04:33;;;;;;;5.10;4.20;;;25.40;54.60;;;27.87;24.09;102685.66;4819994;28;24451;-69
2024/01/27 09:06:55;;;;;;;5.40;4.07;;;25.70;53.00;;;28.27;23.47;102688.19;4830907;28;24448;-68
2024/01/27 09:09:17;;;;;;;4.90;4.30;;;26.10;52.10;;;28.71;23.34;102701.84;4832490;28;25231;-66
2024/01/27 09:11:39;;;;;;;8.35;4.20;;;26.60;50.90;;;29.13;22.52;102697.59;4829027;28;20781;-66
2024/01/27 09:14:01;;;;;;;5.75;3.90;;;27.00;49.70;;;29.03;22.16;102704.25;4835620;28;24519;-68
2024/01/27 09:16:23;;;;;;;6.25;4.00;;;27.10;48.80;;;28.30;22.60;102707.44;4832491;28;24527;-68
2024/01/27 09:18:45;;;;;;;5.45;4.30;;;26.70;48.20;;;27.51;23.56;102698.72;4836323;28;21247;-67
2024/01/27 09:21:08;;;;;;;5.20;4.00;;;26.00;48.60;;;26.56;24.41;102703.84;4827447;28;24483;-69
2024/01/27 09:23:30;;;;;;;7.25;4.70;;;25.20;49.20;;;25.94;25.00;102705.97;4829745;28;24492;-67
2024/01/27 09:25:52;;;;;;;5.95;4.88;;;24.40;49.90;;;25.45;25.93;102703.22;4827903;28;24510;-69
2024/01/27 09:28:15;;;;;;;7.40;4.90;;;23.90;50.50;;;22.98;28.05;102694.56;4835693;28;25000;-67
2024/01/27 09:30:38;;;;;;;5.90;4.40;;;22.40;51.60;;;19.93;31.98;102694.34;4829197;28;24455;-66
2024/01/27 09:33:01;;;;;;;9.15;5.47;;;20.00;54.70;;;17.16;36.75;102697.16;4837072;28;24996;-69
2024/01/27 09:35:23;;;;;;;12.32;5.20;;;17.60;58.10;;;15.01;41.38;102692.28;4834118;28;24548;-67
2024/01/27 09:37:46;;;;;;;7.68;5.40;;;15.50;62.50;;;13.37;44.73;102688.22;4834764;28;24505;-65
2024/01/27 09:40:08;;;;;;;7.47;5.20;;;13.80;66.70;;;11.91;48.58;102690.94;4827816;28;24460;-67
2024/01/27 09:42:34;;;;;;;8.68;5.40;;;12.40;70.90;;;10.91;52.09;102690.88;4833822;28;24445;-67
2024/01/27 09:44:58;;;;;;;8.90;5.40;;;11.30;75.70;;;10.21;54.96;102691.94;4835498;28;24875;-67
2024/01/27 09:47:21;;;;;;;11.20;5.90;;;10.50;81.00;;;9.53;57.07;102694.44;4814245;28;20883;-71
2024/01/27 09:49:43;;;;;;;10.32;5.60;;;9.80;86.40;;;9.11;58.94;102698.50;4819577;28;24479;-67
2024/01/27 09:52:06;;;;;;;8.82;5.13;;;9.20;91.80;;;8.84;60.99;102692.41;4827891;28;24530;-68
2024/01/27 09:54:28;;;;;;;10.25;5.40;;;8.90;95.60;;;8.63;61.11;102687.03;4833906;28;25219;-67
2024/01/27 09:56:51;;;;;;;8.25;5.30;;;8.70;98.20;;;8.41;63.39;102689.47;4835683;28;24432;-68
2024/01/27 09:59:18;;;;;;;10.57;5.70;;;8.40;99.90;;;8.28;64.14;102689.00;4817309;28;24448;-67
2024/01/27 10:01:40;;;;;;;8.82;5.95;;;8.20;99.90;;;8.17;64.59;102684.97;4826343;28;24457;-68